<?xml version="1.0" encoding="UTF-8" standalone="no" ?>
<gpx xmlns="http://www.topografix.com/GPX/1/1" xmlns:xsi="http://www.w3.org/2001/XMLSchema-instance" xsi:schemaLocation="http://www.topografix.com/GPX/1/1 http://www.topografix.com/GPX/1/1/gpx.xsd" version="1.1" creator="VisuGPX - https://www.visugpx.com">
  <metadata>
    <name>Beaucouzé - CAP 10km</name>
    <desc><![CDATA[Départ hotel b&b, un peu de route pour le transfert puis très beau chemin dans les bois. Sympa.]]></desc>
  </metadata>
  <trk>
    <name><![CDATA[Sequence 1]]></name>
    <trkseg>
      <trkpt lat="47.46741" lon="-0.62824">
        <ele>71</ele>
        <time>2015-08-25T17:33:58Z</time>
      </trkpt>
      <trkpt lat="47.46738" lon="-0.62813">
        <ele>71</ele>
        <time>2015-08-25T17:34:04Z</time>
      </trkpt>
      <trkpt lat="47.46737" lon="-0.62806">
        <ele>71</ele>
        <time>2015-08-25T17:34:08Z</time>
      </trkpt>
      <trkpt lat="47.46733" lon="-0.62799">
        <ele>71</ele>
        <time>2015-08-25T17:34:14Z</time>
      </trkpt>
      <trkpt lat="47.46721" lon="-0.62808">
        <ele>71</ele>
        <time>2015-08-25T17:34:20Z</time>
      </trkpt>
      <trkpt lat="47.46713" lon="-0.62825">
        <ele>71</ele>
        <time>2015-08-25T17:34:27Z</time>
      </trkpt>
      <trkpt lat="47.46706" lon="-0.62842">
        <ele>71</ele>
        <time>2015-08-25T17:34:32Z</time>
      </trkpt>
      <trkpt lat="47.46695" lon="-0.62872">
        <ele>71</ele>
        <time>2015-08-25T17:34:40Z</time>
      </trkpt>
      <trkpt lat="47.46687" lon="-0.62885">
        <ele>71</ele>
        <time>2015-08-25T17:34:44Z</time>
      </trkpt>
      <trkpt lat="47.46677" lon="-0.62908">
        <ele>71</ele>
        <time>2015-08-25T17:34:51Z</time>
      </trkpt>
      <trkpt lat="47.4667" lon="-0.62926">
        <ele>71</ele>
        <time>2015-08-25T17:34:56Z</time>
      </trkpt>
      <trkpt lat="47.46663" lon="-0.62952">
        <ele>71</ele>
        <time>2015-08-25T17:35:03Z</time>
      </trkpt>
      <trkpt lat="47.46656" lon="-0.62998">
        <ele>72</ele>
        <time>2015-08-25T17:35:12Z</time>
      </trkpt>
      <trkpt lat="47.46653" lon="-0.63001">
        <ele>72</ele>
        <time>2015-08-25T17:35:14Z</time>
      </trkpt>
      <trkpt lat="47.46646" lon="-0.63025">
        <ele>72</ele>
        <time>2015-08-25T17:35:20Z</time>
      </trkpt>
      <trkpt lat="47.4664" lon="-0.63057">
        <ele>72</ele>
        <time>2015-08-25T17:35:26Z</time>
      </trkpt>
      <trkpt lat="47.46628" lon="-0.63094">
        <ele>73</ele>
        <time>2015-08-25T17:35:37Z</time>
      </trkpt>
      <trkpt lat="47.46626" lon="-0.63097">
        <ele>73</ele>
        <time>2015-08-25T17:35:38Z</time>
      </trkpt>
      <trkpt lat="47.46619" lon="-0.63116">
        <ele>73</ele>
        <time>2015-08-25T17:35:44Z</time>
      </trkpt>
      <trkpt lat="47.46607" lon="-0.63157">
        <ele>73</ele>
        <time>2015-08-25T17:35:55Z</time>
      </trkpt>
      <trkpt lat="47.46606" lon="-0.63166">
        <ele>74</ele>
        <time>2015-08-25T17:35:57Z</time>
      </trkpt>
      <trkpt lat="47.46605" lon="-0.63196">
        <ele>74</ele>
        <time>2015-08-25T17:36:02Z</time>
      </trkpt>
      <trkpt lat="47.46595" lon="-0.63241">
        <ele>74</ele>
        <time>2015-08-25T17:36:13Z</time>
      </trkpt>
      <trkpt lat="47.46594" lon="-0.63245">
        <ele>74</ele>
        <time>2015-08-25T17:36:14Z</time>
      </trkpt>
      <trkpt lat="47.46588" lon="-0.63267">
        <ele>75</ele>
        <time>2015-08-25T17:36:21Z</time>
      </trkpt>
      <trkpt lat="47.46587" lon="-0.63288">
        <ele>75</ele>
        <time>2015-08-25T17:36:26Z</time>
      </trkpt>
      <trkpt lat="47.46609" lon="-0.63317">
        <ele>75</ele>
        <time>2015-08-25T17:36:35Z</time>
      </trkpt>
      <trkpt lat="47.46619" lon="-0.63318">
        <ele>74</ele>
        <time>2015-08-25T17:36:38Z</time>
      </trkpt>
      <trkpt lat="47.46642" lon="-0.6332">
        <ele>74</ele>
        <time>2015-08-25T17:36:45Z</time>
      </trkpt>
      <trkpt lat="47.46649" lon="-0.63331">
        <ele>74</ele>
        <time>2015-08-25T17:36:50Z</time>
      </trkpt>
      <trkpt lat="47.46664" lon="-0.6334">
        <ele>74</ele>
        <time>2015-08-25T17:36:56Z</time>
      </trkpt>
      <trkpt lat="47.46661" lon="-0.63367">
        <ele>74</ele>
        <time>2015-08-25T17:37:04Z</time>
      </trkpt>
      <trkpt lat="47.46657" lon="-0.63406">
        <ele>74</ele>
        <time>2015-08-25T17:37:13Z</time>
      </trkpt>
      <trkpt lat="47.46656" lon="-0.63414">
        <ele>74</ele>
        <time>2015-08-25T17:37:15Z</time>
      </trkpt>
      <trkpt lat="47.46656" lon="-0.63439">
        <ele>75</ele>
        <time>2015-08-25T17:37:21Z</time>
      </trkpt>
      <trkpt lat="47.46659" lon="-0.63459">
        <ele>75</ele>
        <time>2015-08-25T17:37:26Z</time>
      </trkpt>
      <trkpt lat="47.46669" lon="-0.6348">
        <ele>75</ele>
        <time>2015-08-25T17:37:32Z</time>
      </trkpt>
      <trkpt lat="47.4668" lon="-0.63507">
        <ele>75</ele>
        <time>2015-08-25T17:37:40Z</time>
      </trkpt>
      <trkpt lat="47.46685" lon="-0.63522">
        <ele>75</ele>
        <time>2015-08-25T17:37:44Z</time>
      </trkpt>
      <trkpt lat="47.46694" lon="-0.63561">
        <ele>76</ele>
        <time>2015-08-25T17:37:54Z</time>
      </trkpt>
      <trkpt lat="47.46694" lon="-0.63588">
        <ele>76</ele>
        <time>2015-08-25T17:38:01Z</time>
      </trkpt>
      <trkpt lat="47.46693" lon="-0.63592">
        <ele>76</ele>
        <time>2015-08-25T17:38:02Z</time>
      </trkpt>
      <trkpt lat="47.46679" lon="-0.63617">
        <ele>77</ele>
        <time>2015-08-25T17:38:10Z</time>
      </trkpt>
      <trkpt lat="47.46672" lon="-0.63629">
        <ele>77</ele>
        <time>2015-08-25T17:38:14Z</time>
      </trkpt>
      <trkpt lat="47.46655" lon="-0.63637">
        <ele>78</ele>
        <time>2015-08-25T17:38:21Z</time>
      </trkpt>
      <trkpt lat="47.46643" lon="-0.63643">
        <ele>78</ele>
        <time>2015-08-25T17:38:26Z</time>
      </trkpt>
      <trkpt lat="47.46618" lon="-0.63656">
        <ele>80</ele>
        <time>2015-08-25T17:38:36Z</time>
      </trkpt>
      <trkpt lat="47.46613" lon="-0.63658">
        <ele>80</ele>
        <time>2015-08-25T17:38:38Z</time>
      </trkpt>
      <trkpt lat="47.46599" lon="-0.63668">
        <ele>81</ele>
        <time>2015-08-25T17:38:44Z</time>
      </trkpt>
      <trkpt lat="47.46579" lon="-0.63679">
        <ele>81</ele>
        <time>2015-08-25T17:38:52Z</time>
      </trkpt>
      <trkpt lat="47.4657" lon="-0.63684">
        <ele>81</ele>
        <time>2015-08-25T17:38:56Z</time>
      </trkpt>
      <trkpt lat="47.46554" lon="-0.63689">
        <ele>81</ele>
        <time>2015-08-25T17:39:02Z</time>
      </trkpt>
      <trkpt lat="47.46541" lon="-0.63694">
        <ele>82</ele>
        <time>2015-08-25T17:39:08Z</time>
      </trkpt>
      <trkpt lat="47.46528" lon="-0.63703">
        <ele>82</ele>
        <time>2015-08-25T17:39:14Z</time>
      </trkpt>
      <trkpt lat="47.46514" lon="-0.63714">
        <ele>83</ele>
        <time>2015-08-25T17:39:20Z</time>
      </trkpt>
      <trkpt lat="47.465" lon="-0.63723">
        <ele>83</ele>
        <time>2015-08-25T17:39:26Z</time>
      </trkpt>
      <trkpt lat="47.46484" lon="-0.63727">
        <ele>83</ele>
        <time>2015-08-25T17:39:32Z</time>
      </trkpt>
      <trkpt lat="47.4646" lon="-0.63724">
        <ele>83</ele>
        <time>2015-08-25T17:39:41Z</time>
      </trkpt>
      <trkpt lat="47.46453" lon="-0.63721">
        <ele>83</ele>
        <time>2015-08-25T17:39:44Z</time>
      </trkpt>
      <trkpt lat="47.46439" lon="-0.63713">
        <ele>82</ele>
        <time>2015-08-25T17:39:50Z</time>
      </trkpt>
      <trkpt lat="47.46415" lon="-0.63691">
        <ele>82</ele>
        <time>2015-08-25T17:40:01Z</time>
      </trkpt>
      <trkpt lat="47.46402" lon="-0.63689">
        <ele>82</ele>
        <time>2015-08-25T17:40:06Z</time>
      </trkpt>
      <trkpt lat="47.46397" lon="-0.63686">
        <ele>82</ele>
        <time>2015-08-25T17:40:08Z</time>
      </trkpt>
      <trkpt lat="47.46385" lon="-0.63672">
        <ele>81</ele>
        <time>2015-08-25T17:40:14Z</time>
      </trkpt>
      <trkpt lat="47.46367" lon="-0.63658">
        <ele>81</ele>
        <time>2015-08-25T17:40:21Z</time>
      </trkpt>
      <trkpt lat="47.46359" lon="-0.63644">
        <ele>81</ele>
        <time>2015-08-25T17:40:27Z</time>
      </trkpt>
      <trkpt lat="47.46347" lon="-0.63641">
        <ele>81</ele>
        <time>2015-08-25T17:40:32Z</time>
      </trkpt>
      <trkpt lat="47.4632" lon="-0.63624">
        <ele>80</ele>
        <time>2015-08-25T17:40:43Z</time>
      </trkpt>
      <trkpt lat="47.46317" lon="-0.63626">
        <ele>80</ele>
        <time>2015-08-25T17:40:44Z</time>
      </trkpt>
      <trkpt lat="47.46301" lon="-0.63631">
        <ele>79</ele>
        <time>2015-08-25T17:40:50Z</time>
      </trkpt>
      <trkpt lat="47.46276" lon="-0.63631">
        <ele>78</ele>
        <time>2015-08-25T17:40:59Z</time>
      </trkpt>
      <trkpt lat="47.46258" lon="-0.63644">
        <ele>76</ele>
        <time>2015-08-25T17:41:07Z</time>
      </trkpt>
      <trkpt lat="47.46252" lon="-0.63646">
        <ele>76</ele>
        <time>2015-08-25T17:41:09Z</time>
      </trkpt>
      <trkpt lat="47.4624" lon="-0.6365">
        <ele>76</ele>
        <time>2015-08-25T17:41:14Z</time>
      </trkpt>
      <trkpt lat="47.46228" lon="-0.6366">
        <ele>75</ele>
        <time>2015-08-25T17:41:20Z</time>
      </trkpt>
      <trkpt lat="47.46215" lon="-0.63671">
        <ele>75</ele>
        <time>2015-08-25T17:41:26Z</time>
      </trkpt>
      <trkpt lat="47.46194" lon="-0.63685">
        <ele>74</ele>
        <time>2015-08-25T17:41:35Z</time>
      </trkpt>
      <trkpt lat="47.46175" lon="-0.63695">
        <ele>74</ele>
        <time>2015-08-25T17:41:43Z</time>
      </trkpt>
      <trkpt lat="47.46173" lon="-0.63694">
        <ele>73</ele>
        <time>2015-08-25T17:41:44Z</time>
      </trkpt>
      <trkpt lat="47.46166" lon="-0.63703">
        <ele>73</ele>
        <time>2015-08-25T17:41:50Z</time>
      </trkpt>
      <trkpt lat="47.46164" lon="-0.63712">
        <ele>73</ele>
        <time>2015-08-25T17:42:01Z</time>
      </trkpt>
      <trkpt lat="47.46164" lon="-0.63712">
        <ele>73</ele>
        <time>2015-08-25T17:42:02Z</time>
      </trkpt>
      <trkpt lat="47.46161" lon="-0.63718">
        <ele>73</ele>
        <time>2015-08-25T17:42:08Z</time>
      </trkpt>
      <trkpt lat="47.46147" lon="-0.63725">
        <ele>72</ele>
        <time>2015-08-25T17:42:15Z</time>
      </trkpt>
      <trkpt lat="47.4613" lon="-0.63744">
        <ele>71</ele>
        <time>2015-08-25T17:42:23Z</time>
      </trkpt>
      <trkpt lat="47.46124" lon="-0.63751">
        <ele>70</ele>
        <time>2015-08-25T17:42:28Z</time>
      </trkpt>
      <trkpt lat="47.46117" lon="-0.63758">
        <ele>70</ele>
        <time>2015-08-25T17:42:32Z</time>
      </trkpt>
      <trkpt lat="47.46106" lon="-0.63773">
        <ele>70</ele>
        <time>2015-08-25T17:42:38Z</time>
      </trkpt>
      <trkpt lat="47.46093" lon="-0.63786">
        <ele>69</ele>
        <time>2015-08-25T17:42:45Z</time>
      </trkpt>
      <trkpt lat="47.46085" lon="-0.63795">
        <ele>68</ele>
        <time>2015-08-25T17:42:50Z</time>
      </trkpt>
      <trkpt lat="47.4605" lon="-0.6382">
        <ele>66</ele>
        <time>2015-08-25T17:43:00Z</time>
      </trkpt>
      <trkpt lat="47.46039" lon="-0.6383">
        <ele>65</ele>
        <time>2015-08-25T17:43:04Z</time>
      </trkpt>
      <trkpt lat="47.46028" lon="-0.63833">
        <ele>65</ele>
        <time>2015-08-25T17:43:08Z</time>
      </trkpt>
      <trkpt lat="47.46008" lon="-0.63838">
        <ele>64</ele>
        <time>2015-08-25T17:43:15Z</time>
      </trkpt>
      <trkpt lat="47.45992" lon="-0.63844">
        <ele>64</ele>
        <time>2015-08-25T17:43:20Z</time>
      </trkpt>
      <trkpt lat="47.45962" lon="-0.63864">
        <ele>64</ele>
        <time>2015-08-25T17:43:29Z</time>
      </trkpt>
      <trkpt lat="47.45953" lon="-0.6387">
        <ele>64</ele>
        <time>2015-08-25T17:43:32Z</time>
      </trkpt>
      <trkpt lat="47.45942" lon="-0.63894">
        <ele>64</ele>
        <time>2015-08-25T17:43:38Z</time>
      </trkpt>
      <trkpt lat="47.45921" lon="-0.63923">
        <ele>64</ele>
        <time>2015-08-25T17:43:48Z</time>
      </trkpt>
      <trkpt lat="47.45915" lon="-0.63928">
        <ele>64</ele>
        <time>2015-08-25T17:43:51Z</time>
      </trkpt>
      <trkpt lat="47.45905" lon="-0.63937">
        <ele>65</ele>
        <time>2015-08-25T17:43:56Z</time>
      </trkpt>
      <trkpt lat="47.4589" lon="-0.63952">
        <ele>65</ele>
        <time>2015-08-25T17:44:02Z</time>
      </trkpt>
      <trkpt lat="47.45868" lon="-0.63984">
        <ele>65</ele>
        <time>2015-08-25T17:44:11Z</time>
      </trkpt>
      <trkpt lat="47.45861" lon="-0.63991">
        <ele>66</ele>
        <time>2015-08-25T17:44:14Z</time>
      </trkpt>
      <trkpt lat="47.4585" lon="-0.64003">
        <ele>66</ele>
        <time>2015-08-25T17:44:21Z</time>
      </trkpt>
      <trkpt lat="47.45844" lon="-0.64016">
        <ele>66</ele>
        <time>2015-08-25T17:44:26Z</time>
      </trkpt>
      <trkpt lat="47.45829" lon="-0.64028">
        <ele>66</ele>
        <time>2015-08-25T17:44:32Z</time>
      </trkpt>
      <trkpt lat="47.45816" lon="-0.64043">
        <ele>67</ele>
        <time>2015-08-25T17:44:38Z</time>
      </trkpt>
      <trkpt lat="47.45799" lon="-0.64063">
        <ele>67</ele>
        <time>2015-08-25T17:44:45Z</time>
      </trkpt>
      <trkpt lat="47.45788" lon="-0.64075">
        <ele>68</ele>
        <time>2015-08-25T17:44:53Z</time>
      </trkpt>
      <trkpt lat="47.4578" lon="-0.64083">
        <ele>68</ele>
        <time>2015-08-25T17:44:57Z</time>
      </trkpt>
      <trkpt lat="47.45767" lon="-0.64095">
        <ele>68</ele>
        <time>2015-08-25T17:45:02Z</time>
      </trkpt>
      <trkpt lat="47.45742" lon="-0.6412">
        <ele>69</ele>
        <time>2015-08-25T17:45:13Z</time>
      </trkpt>
      <trkpt lat="47.4574" lon="-0.64122">
        <ele>69</ele>
        <time>2015-08-25T17:45:14Z</time>
      </trkpt>
      <trkpt lat="47.45727" lon="-0.64132">
        <ele>69</ele>
        <time>2015-08-25T17:45:20Z</time>
      </trkpt>
      <trkpt lat="47.45706" lon="-0.64131">
        <ele>69</ele>
        <time>2015-08-25T17:45:27Z</time>
      </trkpt>
      <trkpt lat="47.45687" lon="-0.6412">
        <ele>69</ele>
        <time>2015-08-25T17:45:35Z</time>
      </trkpt>
      <trkpt lat="47.45682" lon="-0.64116">
        <ele>69</ele>
        <time>2015-08-25T17:45:38Z</time>
      </trkpt>
      <trkpt lat="47.45674" lon="-0.64107">
        <ele>69</ele>
        <time>2015-08-25T17:45:44Z</time>
      </trkpt>
      <trkpt lat="47.4566" lon="-0.64096">
        <ele>69</ele>
        <time>2015-08-25T17:45:50Z</time>
      </trkpt>
      <trkpt lat="47.45648" lon="-0.64072">
        <ele>69</ele>
        <time>2015-08-25T17:45:59Z</time>
      </trkpt>
      <trkpt lat="47.45644" lon="-0.64063">
        <ele>69</ele>
        <time>2015-08-25T17:46:02Z</time>
      </trkpt>
      <trkpt lat="47.45626" lon="-0.64023">
        <ele>67</ele>
        <time>2015-08-25T17:46:13Z</time>
      </trkpt>
      <trkpt lat="47.45623" lon="-0.64015">
        <ele>67</ele>
        <time>2015-08-25T17:46:15Z</time>
      </trkpt>
      <trkpt lat="47.45617" lon="-0.63997">
        <ele>67</ele>
        <time>2015-08-25T17:46:20Z</time>
      </trkpt>
      <trkpt lat="47.45601" lon="-0.63964">
        <ele>67</ele>
        <time>2015-08-25T17:46:29Z</time>
      </trkpt>
      <trkpt lat="47.45591" lon="-0.63943">
        <ele>66</ele>
        <time>2015-08-25T17:46:35Z</time>
      </trkpt>
      <trkpt lat="47.4558" lon="-0.63918">
        <ele>65</ele>
        <time>2015-08-25T17:46:41Z</time>
      </trkpt>
      <trkpt lat="47.45575" lon="-0.63911">
        <ele>65</ele>
        <time>2015-08-25T17:46:44Z</time>
      </trkpt>
      <trkpt lat="47.45565" lon="-0.63886">
        <ele>65</ele>
        <time>2015-08-25T17:46:51Z</time>
      </trkpt>
      <trkpt lat="47.45559" lon="-0.63864">
        <ele>64</ele>
        <time>2015-08-25T17:46:57Z</time>
      </trkpt>
      <trkpt lat="47.4555" lon="-0.63847">
        <ele>64</ele>
        <time>2015-08-25T17:47:02Z</time>
      </trkpt>
      <trkpt lat="47.45544" lon="-0.6383">
        <ele>64</ele>
        <time>2015-08-25T17:47:08Z</time>
      </trkpt>
      <trkpt lat="47.45534" lon="-0.638">
        <ele>64</ele>
        <time>2015-08-25T17:47:14Z</time>
      </trkpt>
      <trkpt lat="47.45522" lon="-0.63763">
        <ele>64</ele>
        <time>2015-08-25T17:47:24Z</time>
      </trkpt>
      <trkpt lat="47.4552" lon="-0.63757">
        <ele>64</ele>
        <time>2015-08-25T17:47:26Z</time>
      </trkpt>
      <trkpt lat="47.45513" lon="-0.6373">
        <ele>64</ele>
        <time>2015-08-25T17:47:32Z</time>
      </trkpt>
      <trkpt lat="47.45506" lon="-0.63703">
        <ele>64</ele>
        <time>2015-08-25T17:47:38Z</time>
      </trkpt>
      <trkpt lat="47.45496" lon="-0.63684">
        <ele>64</ele>
        <time>2015-08-25T17:47:44Z</time>
      </trkpt>
      <trkpt lat="47.45493" lon="-0.63654">
        <ele>64</ele>
        <time>2015-08-25T17:47:51Z</time>
      </trkpt>
      <trkpt lat="47.45486" lon="-0.63633">
        <ele>64</ele>
        <time>2015-08-25T17:47:57Z</time>
      </trkpt>
      <trkpt lat="47.45482" lon="-0.63622">
        <ele>64</ele>
        <time>2015-08-25T17:48:02Z</time>
      </trkpt>
      <trkpt lat="47.45472" lon="-0.63607">
        <ele>64</ele>
        <time>2015-08-25T17:48:08Z</time>
      </trkpt>
      <trkpt lat="47.4546" lon="-0.6359">
        <ele>64</ele>
        <time>2015-08-25T17:48:14Z</time>
      </trkpt>
      <trkpt lat="47.45445" lon="-0.63568">
        <ele>64</ele>
        <time>2015-08-25T17:48:21Z</time>
      </trkpt>
      <trkpt lat="47.45427" lon="-0.63547">
        <ele>65</ele>
        <time>2015-08-25T17:48:30Z</time>
      </trkpt>
      <trkpt lat="47.45423" lon="-0.63541">
        <ele>65</ele>
        <time>2015-08-25T17:48:32Z</time>
      </trkpt>
      <trkpt lat="47.45416" lon="-0.63529">
        <ele>65</ele>
        <time>2015-08-25T17:48:38Z</time>
      </trkpt>
      <trkpt lat="47.45399" lon="-0.63505">
        <ele>65</ele>
        <time>2015-08-25T17:48:47Z</time>
      </trkpt>
      <trkpt lat="47.45392" lon="-0.63492">
        <ele>65</ele>
        <time>2015-08-25T17:48:52Z</time>
      </trkpt>
      <trkpt lat="47.45377" lon="-0.63474">
        <ele>65</ele>
        <time>2015-08-25T17:49:00Z</time>
      </trkpt>
      <trkpt lat="47.45371" lon="-0.6347">
        <ele>65</ele>
        <time>2015-08-25T17:49:02Z</time>
      </trkpt>
      <trkpt lat="47.45352" lon="-0.63442">
        <ele>66</ele>
        <time>2015-08-25T17:49:11Z</time>
      </trkpt>
      <trkpt lat="47.45342" lon="-0.63415">
        <ele>66</ele>
        <time>2015-08-25T17:49:19Z</time>
      </trkpt>
      <trkpt lat="47.45341" lon="-0.63411">
        <ele>66</ele>
        <time>2015-08-25T17:49:20Z</time>
      </trkpt>
      <trkpt lat="47.4533" lon="-0.63385">
        <ele>66</ele>
        <time>2015-08-25T17:49:27Z</time>
      </trkpt>
      <trkpt lat="47.45316" lon="-0.63342">
        <ele>67</ele>
        <time>2015-08-25T17:49:37Z</time>
      </trkpt>
      <trkpt lat="47.45314" lon="-0.63338">
        <ele>67</ele>
        <time>2015-08-25T17:49:38Z</time>
      </trkpt>
      <trkpt lat="47.453" lon="-0.63306">
        <ele>67</ele>
        <time>2015-08-25T17:49:48Z</time>
      </trkpt>
      <trkpt lat="47.45293" lon="-0.63293">
        <ele>67</ele>
        <time>2015-08-25T17:49:53Z</time>
      </trkpt>
      <trkpt lat="47.45288" lon="-0.63283">
        <ele>67</ele>
        <time>2015-08-25T17:49:56Z</time>
      </trkpt>
      <trkpt lat="47.4528" lon="-0.63264">
        <ele>67</ele>
        <time>2015-08-25T17:50:02Z</time>
      </trkpt>
      <trkpt lat="47.45267" lon="-0.63239">
        <ele>67</ele>
        <time>2015-08-25T17:50:09Z</time>
      </trkpt>
      <trkpt lat="47.45256" lon="-0.63226">
        <ele>67</ele>
        <time>2015-08-25T17:50:14Z</time>
      </trkpt>
      <trkpt lat="47.45238" lon="-0.63209">
        <ele>66</ele>
        <time>2015-08-25T17:50:20Z</time>
      </trkpt>
      <trkpt lat="47.45222" lon="-0.63192">
        <ele>66</ele>
        <time>2015-08-25T17:50:29Z</time>
      </trkpt>
      <trkpt lat="47.45216" lon="-0.63184">
        <ele>66</ele>
        <time>2015-08-25T17:50:33Z</time>
      </trkpt>
      <trkpt lat="47.45203" lon="-0.63167">
        <ele>66</ele>
        <time>2015-08-25T17:50:39Z</time>
      </trkpt>
      <trkpt lat="47.45194" lon="-0.63151">
        <ele>66</ele>
        <time>2015-08-25T17:50:44Z</time>
      </trkpt>
      <trkpt lat="47.45176" lon="-0.6313">
        <ele>66</ele>
        <time>2015-08-25T17:50:52Z</time>
      </trkpt>
      <trkpt lat="47.45171" lon="-0.63126">
        <ele>66</ele>
        <time>2015-08-25T17:50:56Z</time>
      </trkpt>
      <trkpt lat="47.45155" lon="-0.63112">
        <ele>66</ele>
        <time>2015-08-25T17:51:02Z</time>
      </trkpt>
      <trkpt lat="47.45143" lon="-0.63092">
        <ele>66</ele>
        <time>2015-08-25T17:51:09Z</time>
      </trkpt>
      <trkpt lat="47.4513" lon="-0.63073">
        <ele>65</ele>
        <time>2015-08-25T17:51:19Z</time>
      </trkpt>
      <trkpt lat="47.45129" lon="-0.63066">
        <ele>65</ele>
        <time>2015-08-25T17:51:22Z</time>
      </trkpt>
      <trkpt lat="47.45128" lon="-0.63053">
        <ele>65</ele>
        <time>2015-08-25T17:51:27Z</time>
      </trkpt>
      <trkpt lat="47.45129" lon="-0.63046">
        <ele>65</ele>
        <time>2015-08-25T17:51:32Z</time>
      </trkpt>
      <trkpt lat="47.4513" lon="-0.63041">
        <ele>65</ele>
        <time>2015-08-25T17:51:38Z</time>
      </trkpt>
      <trkpt lat="47.45138" lon="-0.63022">
        <ele>65</ele>
        <time>2015-08-25T17:51:44Z</time>
      </trkpt>
      <trkpt lat="47.45146" lon="-0.63007">
        <ele>65</ele>
        <time>2015-08-25T17:51:51Z</time>
      </trkpt>
      <trkpt lat="47.45152" lon="-0.62991">
        <ele>64</ele>
        <time>2015-08-25T17:51:56Z</time>
      </trkpt>
      <trkpt lat="47.45166" lon="-0.62969">
        <ele>64</ele>
        <time>2015-08-25T17:52:02Z</time>
      </trkpt>
      <trkpt lat="47.45182" lon="-0.62937">
        <ele>63</ele>
        <time>2015-08-25T17:52:11Z</time>
      </trkpt>
      <trkpt lat="47.45187" lon="-0.62914">
        <ele>62</ele>
        <time>2015-08-25T17:52:17Z</time>
      </trkpt>
      <trkpt lat="47.4519" lon="-0.62902">
        <ele>62</ele>
        <time>2015-08-25T17:52:20Z</time>
      </trkpt>
      <trkpt lat="47.45194" lon="-0.62866">
        <ele>62</ele>
        <time>2015-08-25T17:52:26Z</time>
      </trkpt>
      <trkpt lat="47.45184" lon="-0.62821">
        <ele>62</ele>
        <time>2015-08-25T17:52:37Z</time>
      </trkpt>
      <trkpt lat="47.45181" lon="-0.62809">
        <ele>62</ele>
        <time>2015-08-25T17:52:40Z</time>
      </trkpt>
      <trkpt lat="47.45179" lon="-0.62788">
        <ele>61</ele>
        <time>2015-08-25T17:52:45Z</time>
      </trkpt>
      <trkpt lat="47.45177" lon="-0.62765">
        <ele>61</ele>
        <time>2015-08-25T17:52:52Z</time>
      </trkpt>
      <trkpt lat="47.45174" lon="-0.62754">
        <ele>61</ele>
        <time>2015-08-25T17:52:56Z</time>
      </trkpt>
      <trkpt lat="47.45159" lon="-0.62709">
        <ele>62</ele>
        <time>2015-08-25T17:53:07Z</time>
      </trkpt>
      <trkpt lat="47.45158" lon="-0.62704">
        <ele>62</ele>
        <time>2015-08-25T17:53:09Z</time>
      </trkpt>
      <trkpt lat="47.45136" lon="-0.62683">
        <ele>63</ele>
        <time>2015-08-25T17:53:19Z</time>
      </trkpt>
      <trkpt lat="47.45124" lon="-0.62666">
        <ele>63</ele>
        <time>2015-08-25T17:53:25Z</time>
      </trkpt>
      <trkpt lat="47.45121" lon="-0.62655">
        <ele>63</ele>
        <time>2015-08-25T17:53:28Z</time>
      </trkpt>
      <trkpt lat="47.4512" lon="-0.62632">
        <ele>63</ele>
        <time>2015-08-25T17:53:35Z</time>
      </trkpt>
      <trkpt lat="47.45118" lon="-0.62625">
        <ele>63</ele>
        <time>2015-08-25T17:53:38Z</time>
      </trkpt>
      <trkpt lat="47.45112" lon="-0.62599">
        <ele>63</ele>
        <time>2015-08-25T17:53:46Z</time>
      </trkpt>
      <trkpt lat="47.45093" lon="-0.62581">
        <ele>64</ele>
        <time>2015-08-25T17:53:53Z</time>
      </trkpt>
      <trkpt lat="47.45083" lon="-0.62569">
        <ele>64</ele>
        <time>2015-08-25T17:53:58Z</time>
      </trkpt>
      <trkpt lat="47.4507" lon="-0.62551">
        <ele>64</ele>
        <time>2015-08-25T17:54:04Z</time>
      </trkpt>
      <trkpt lat="47.45068" lon="-0.62537">
        <ele>64</ele>
        <time>2015-08-25T17:54:09Z</time>
      </trkpt>
      <trkpt lat="47.45061" lon="-0.62513">
        <ele>64</ele>
        <time>2015-08-25T17:54:15Z</time>
      </trkpt>
      <trkpt lat="47.45056" lon="-0.625">
        <ele>65</ele>
        <time>2015-08-25T17:54:20Z</time>
      </trkpt>
      <trkpt lat="47.45048" lon="-0.62474">
        <ele>65</ele>
        <time>2015-08-25T17:54:29Z</time>
      </trkpt>
      <trkpt lat="47.45043" lon="-0.62439">
        <ele>65</ele>
        <time>2015-08-25T17:54:37Z</time>
      </trkpt>
      <trkpt lat="47.45042" lon="-0.62424">
        <ele>65</ele>
        <time>2015-08-25T17:54:41Z</time>
      </trkpt>
      <trkpt lat="47.45038" lon="-0.6242">
        <ele>65</ele>
        <time>2015-08-25T17:54:44Z</time>
      </trkpt>
      <trkpt lat="47.45035" lon="-0.62401">
        <ele>65</ele>
        <time>2015-08-25T17:54:53Z</time>
      </trkpt>
      <trkpt lat="47.45042" lon="-0.62389">
        <ele>65</ele>
        <time>2015-08-25T17:54:58Z</time>
      </trkpt>
      <trkpt lat="47.45054" lon="-0.62371">
        <ele>65</ele>
        <time>2015-08-25T17:55:07Z</time>
      </trkpt>
      <trkpt lat="47.45055" lon="-0.62366">
        <ele>65</ele>
        <time>2015-08-25T17:55:09Z</time>
      </trkpt>
      <trkpt lat="47.45063" lon="-0.62344">
        <ele>64</ele>
        <time>2015-08-25T17:55:15Z</time>
      </trkpt>
      <trkpt lat="47.4507" lon="-0.62327">
        <ele>64</ele>
        <time>2015-08-25T17:55:20Z</time>
      </trkpt>
      <trkpt lat="47.45075" lon="-0.62281">
        <ele>64</ele>
        <time>2015-08-25T17:55:30Z</time>
      </trkpt>
      <trkpt lat="47.45076" lon="-0.62273">
        <ele>64</ele>
        <time>2015-08-25T17:55:32Z</time>
      </trkpt>
      <trkpt lat="47.45075" lon="-0.62246">
        <ele>64</ele>
        <time>2015-08-25T17:55:39Z</time>
      </trkpt>
      <trkpt lat="47.45075" lon="-0.62228">
        <ele>64</ele>
        <time>2015-08-25T17:55:44Z</time>
      </trkpt>
      <trkpt lat="47.45072" lon="-0.62202">
        <ele>64</ele>
        <time>2015-08-25T17:55:55Z</time>
      </trkpt>
    </trkseg>
  </trk>
  <trk>
    <name><![CDATA[Sequence 2]]></name>
    <trkseg>
      <trkpt lat="47.45082" lon="-0.62196">
        <ele>63</ele>
        <time>2015-08-25T17:57:16Z</time>
      </trkpt>
      <trkpt lat="47.45084" lon="-0.62217">
        <ele>64</ele>
        <time>2015-08-25T17:57:26Z</time>
      </trkpt>
      <trkpt lat="47.45082" lon="-0.62228">
        <ele>64</ele>
        <time>2015-08-25T17:57:30Z</time>
      </trkpt>
      <trkpt lat="47.45082" lon="-0.6224">
        <ele>64</ele>
        <time>2015-08-25T17:57:34Z</time>
      </trkpt>
      <trkpt lat="47.45077" lon="-0.62256">
        <ele>64</ele>
        <time>2015-08-25T17:57:40Z</time>
      </trkpt>
      <trkpt lat="47.45075" lon="-0.62294">
        <ele>64</ele>
        <time>2015-08-25T17:57:51Z</time>
      </trkpt>
      <trkpt lat="47.45067" lon="-0.62315">
        <ele>64</ele>
        <time>2015-08-25T17:57:57Z</time>
      </trkpt>
      <trkpt lat="47.45066" lon="-0.62318">
        <ele>64</ele>
        <time>2015-08-25T17:57:58Z</time>
      </trkpt>
      <trkpt lat="47.45058" lon="-0.62332">
        <ele>65</ele>
        <time>2015-08-25T17:58:04Z</time>
      </trkpt>
      <trkpt lat="47.45054" lon="-0.62344">
        <ele>65</ele>
        <time>2015-08-25T17:58:10Z</time>
      </trkpt>
      <trkpt lat="47.45039" lon="-0.62373">
        <ele>65</ele>
        <time>2015-08-25T17:58:20Z</time>
      </trkpt>
      <trkpt lat="47.45029" lon="-0.6238">
        <ele>65</ele>
        <time>2015-08-25T17:58:24Z</time>
      </trkpt>
      <trkpt lat="47.45025" lon="-0.62382">
        <ele>65</ele>
        <time>2015-08-25T17:58:28Z</time>
      </trkpt>
      <trkpt lat="47.45012" lon="-0.62402">
        <ele>66</ele>
        <time>2015-08-25T17:58:36Z</time>
      </trkpt>
      <trkpt lat="47.45001" lon="-0.62422">
        <ele>66</ele>
        <time>2015-08-25T17:58:42Z</time>
      </trkpt>
      <trkpt lat="47.44984" lon="-0.62443">
        <ele>66</ele>
        <time>2015-08-25T17:58:51Z</time>
      </trkpt>
      <trkpt lat="47.44977" lon="-0.62449">
        <ele>67</ele>
        <time>2015-08-25T17:58:54Z</time>
      </trkpt>
      <trkpt lat="47.44972" lon="-0.62457">
        <ele>67</ele>
        <time>2015-08-25T17:58:58Z</time>
      </trkpt>
      <trkpt lat="47.44955" lon="-0.62473">
        <ele>67</ele>
        <time>2015-08-25T17:59:06Z</time>
      </trkpt>
      <trkpt lat="47.44942" lon="-0.62496">
        <ele>68</ele>
        <time>2015-08-25T17:59:14Z</time>
      </trkpt>
      <trkpt lat="47.44942" lon="-0.62505">
        <ele>68</ele>
        <time>2015-08-25T17:59:16Z</time>
      </trkpt>
      <trkpt lat="47.44932" lon="-0.62516">
        <ele>68</ele>
        <time>2015-08-25T17:59:25Z</time>
      </trkpt>
      <trkpt lat="47.44926" lon="-0.62517">
        <ele>68</ele>
        <time>2015-08-25T17:59:28Z</time>
      </trkpt>
      <trkpt lat="47.44911" lon="-0.62525">
        <ele>68</ele>
        <time>2015-08-25T17:59:34Z</time>
      </trkpt>
      <trkpt lat="47.44895" lon="-0.62522">
        <ele>69</ele>
        <time>2015-08-25T17:59:40Z</time>
      </trkpt>
      <trkpt lat="47.44882" lon="-0.62522">
        <ele>69</ele>
        <time>2015-08-25T17:59:46Z</time>
      </trkpt>
      <trkpt lat="47.44859" lon="-0.62542">
        <ele>70</ele>
        <time>2015-08-25T17:59:57Z</time>
      </trkpt>
      <trkpt lat="47.4485" lon="-0.62553">
        <ele>70</ele>
        <time>2015-08-25T18:00:01Z</time>
      </trkpt>
      <trkpt lat="47.44845" lon="-0.62556">
        <ele>70</ele>
        <time>2015-08-25T18:00:04Z</time>
      </trkpt>
      <trkpt lat="47.44814" lon="-0.62552">
        <ele>71</ele>
        <time>2015-08-25T18:00:15Z</time>
      </trkpt>
      <trkpt lat="47.44797" lon="-0.62567">
        <ele>73</ele>
        <time>2015-08-25T18:00:21Z</time>
      </trkpt>
      <trkpt lat="47.44796" lon="-0.62577">
        <ele>73</ele>
        <time>2015-08-25T18:00:23Z</time>
      </trkpt>
      <trkpt lat="47.44795" lon="-0.62601">
        <ele>73</ele>
        <time>2015-08-25T18:00:29Z</time>
      </trkpt>
      <trkpt lat="47.44791" lon="-0.62626">
        <ele>74</ele>
        <time>2015-08-25T18:00:37Z</time>
      </trkpt>
      <trkpt lat="47.44789" lon="-0.6264">
        <ele>74</ele>
        <time>2015-08-25T18:00:41Z</time>
      </trkpt>
      <trkpt lat="47.44791" lon="-0.62676">
        <ele>74</ele>
        <time>2015-08-25T18:00:51Z</time>
      </trkpt>
      <trkpt lat="47.44791" lon="-0.62679">
        <ele>74</ele>
        <time>2015-08-25T18:00:52Z</time>
      </trkpt>
      <trkpt lat="47.4479" lon="-0.62717">
        <ele>74</ele>
        <time>2015-08-25T18:01:01Z</time>
      </trkpt>
      <trkpt lat="47.44788" lon="-0.62727">
        <ele>74</ele>
        <time>2015-08-25T18:01:04Z</time>
      </trkpt>
      <trkpt lat="47.44786" lon="-0.62748">
        <ele>74</ele>
        <time>2015-08-25T18:01:11Z</time>
      </trkpt>
      <trkpt lat="47.44774" lon="-0.62771">
        <ele>74</ele>
        <time>2015-08-25T18:01:20Z</time>
      </trkpt>
      <trkpt lat="47.44771" lon="-0.62776">
        <ele>74</ele>
        <time>2015-08-25T18:01:22Z</time>
      </trkpt>
      <trkpt lat="47.4476" lon="-0.62795">
        <ele>74</ele>
        <time>2015-08-25T18:01:28Z</time>
      </trkpt>
      <trkpt lat="47.44745" lon="-0.62809">
        <ele>74</ele>
        <time>2015-08-25T18:01:35Z</time>
      </trkpt>
      <trkpt lat="47.44728" lon="-0.62845">
        <ele>74</ele>
        <time>2015-08-25T18:01:45Z</time>
      </trkpt>
      <trkpt lat="47.44726" lon="-0.62848">
        <ele>74</ele>
        <time>2015-08-25T18:01:46Z</time>
      </trkpt>
      <trkpt lat="47.44716" lon="-0.62867">
        <ele>74</ele>
        <time>2015-08-25T18:01:53Z</time>
      </trkpt>
      <trkpt lat="47.44711" lon="-0.62876">
        <ele>74</ele>
        <time>2015-08-25T18:01:58Z</time>
      </trkpt>
      <trkpt lat="47.44722" lon="-0.62873">
        <ele>74</ele>
        <time>2015-08-25T18:02:09Z</time>
      </trkpt>
      <trkpt lat="47.44723" lon="-0.62871">
        <ele>74</ele>
        <time>2015-08-25T18:02:10Z</time>
      </trkpt>
      <trkpt lat="47.44739" lon="-0.62842">
        <ele>74</ele>
        <time>2015-08-25T18:02:21Z</time>
      </trkpt>
      <trkpt lat="47.44743" lon="-0.62837">
        <ele>74</ele>
        <time>2015-08-25T18:02:24Z</time>
      </trkpt>
      <trkpt lat="47.44749" lon="-0.62828">
        <ele>74</ele>
        <time>2015-08-25T18:02:28Z</time>
      </trkpt>
      <trkpt lat="47.44762" lon="-0.62803">
        <ele>74</ele>
        <time>2015-08-25T18:02:35Z</time>
      </trkpt>
      <trkpt lat="47.4477" lon="-0.62789">
        <ele>74</ele>
        <time>2015-08-25T18:02:40Z</time>
      </trkpt>
      <trkpt lat="47.44776" lon="-0.62778">
        <ele>74</ele>
        <time>2015-08-25T18:02:46Z</time>
      </trkpt>
      <trkpt lat="47.44788" lon="-0.62761">
        <ele>74</ele>
        <time>2015-08-25T18:02:54Z</time>
      </trkpt>
      <trkpt lat="47.44795" lon="-0.62753">
        <ele>74</ele>
        <time>2015-08-25T18:02:58Z</time>
      </trkpt>
      <trkpt lat="47.44802" lon="-0.6273">
        <ele>74</ele>
        <time>2015-08-25T18:03:04Z</time>
      </trkpt>
      <trkpt lat="47.44803" lon="-0.62711">
        <ele>74</ele>
        <time>2015-08-25T18:03:10Z</time>
      </trkpt>
      <trkpt lat="47.44802" lon="-0.62676">
        <ele>73</ele>
        <time>2015-08-25T18:03:20Z</time>
      </trkpt>
      <trkpt lat="47.448" lon="-0.62671">
        <ele>74</ele>
        <time>2015-08-25T18:03:22Z</time>
      </trkpt>
      <trkpt lat="47.44804" lon="-0.62642">
        <ele>74</ele>
        <time>2015-08-25T18:03:31Z</time>
      </trkpt>
      <trkpt lat="47.44803" lon="-0.62604">
        <ele>73</ele>
        <time>2015-08-25T18:03:38Z</time>
      </trkpt>
      <trkpt lat="47.44808" lon="-0.62587">
        <ele>73</ele>
        <time>2015-08-25T18:03:44Z</time>
      </trkpt>
      <trkpt lat="47.4482" lon="-0.62581">
        <ele>72</ele>
        <time>2015-08-25T18:03:50Z</time>
      </trkpt>
      <trkpt lat="47.44823" lon="-0.62581">
        <ele>72</ele>
        <time>2015-08-25T18:03:52Z</time>
      </trkpt>
      <trkpt lat="47.44848" lon="-0.62575">
        <ele>71</ele>
        <time>2015-08-25T18:04:02Z</time>
      </trkpt>
      <trkpt lat="47.44863" lon="-0.62559">
        <ele>70</ele>
        <time>2015-08-25T18:04:08Z</time>
      </trkpt>
      <trkpt lat="47.44869" lon="-0.62555">
        <ele>70</ele>
        <time>2015-08-25T18:04:11Z</time>
      </trkpt>
      <trkpt lat="47.44882" lon="-0.62551">
        <ele>69</ele>
        <time>2015-08-25T18:04:16Z</time>
      </trkpt>
      <trkpt lat="47.44913" lon="-0.6254">
        <ele>68</ele>
        <time>2015-08-25T18:04:27Z</time>
      </trkpt>
      <trkpt lat="47.44915" lon="-0.62538">
        <ele>68</ele>
        <time>2015-08-25T18:04:28Z</time>
      </trkpt>
      <trkpt lat="47.44927" lon="-0.62532">
        <ele>68</ele>
        <time>2015-08-25T18:04:34Z</time>
      </trkpt>
      <trkpt lat="47.44951" lon="-0.62518">
        <ele>68</ele>
        <time>2015-08-25T18:04:44Z</time>
      </trkpt>
      <trkpt lat="47.44953" lon="-0.6251">
        <ele>67</ele>
        <time>2015-08-25T18:04:46Z</time>
      </trkpt>
      <trkpt lat="47.44962" lon="-0.62494">
        <ele>67</ele>
        <time>2015-08-25T18:04:52Z</time>
      </trkpt>
      <trkpt lat="47.44989" lon="-0.62465">
        <ele>66</ele>
        <time>2015-08-25T18:05:02Z</time>
      </trkpt>
      <trkpt lat="47.44992" lon="-0.6246">
        <ele>66</ele>
        <time>2015-08-25T18:05:04Z</time>
      </trkpt>
      <trkpt lat="47.4501" lon="-0.62432">
        <ele>66</ele>
        <time>2015-08-25T18:05:14Z</time>
      </trkpt>
      <trkpt lat="47.45013" lon="-0.62429">
        <ele>66</ele>
        <time>2015-08-25T18:05:16Z</time>
      </trkpt>
      <trkpt lat="47.45023" lon="-0.62421">
        <ele>65</ele>
        <time>2015-08-25T18:05:22Z</time>
      </trkpt>
      <trkpt lat="47.45033" lon="-0.62412">
        <ele>65</ele>
        <time>2015-08-25T18:05:28Z</time>
      </trkpt>
      <trkpt lat="47.45036" lon="-0.62424">
        <ele>65</ele>
        <time>2015-08-25T18:05:34Z</time>
      </trkpt>
      <trkpt lat="47.45041" lon="-0.62457">
        <ele>65</ele>
        <time>2015-08-25T18:05:43Z</time>
      </trkpt>
      <trkpt lat="47.45044" lon="-0.6247">
        <ele>65</ele>
        <time>2015-08-25T18:05:47Z</time>
      </trkpt>
      <trkpt lat="47.45046" lon="-0.62481">
        <ele>65</ele>
        <time>2015-08-25T18:05:52Z</time>
      </trkpt>
      <trkpt lat="47.45056" lon="-0.62521">
        <ele>65</ele>
        <time>2015-08-25T18:06:02Z</time>
      </trkpt>
      <trkpt lat="47.45057" lon="-0.6253">
        <ele>64</ele>
        <time>2015-08-25T18:06:04Z</time>
      </trkpt>
      <trkpt lat="47.45067" lon="-0.62543">
        <ele>64</ele>
        <time>2015-08-25T18:06:10Z</time>
      </trkpt>
      <trkpt lat="47.45074" lon="-0.62555">
        <ele>64</ele>
        <time>2015-08-25T18:06:16Z</time>
      </trkpt>
      <trkpt lat="47.45083" lon="-0.62581">
        <ele>64</ele>
        <time>2015-08-25T18:06:22Z</time>
      </trkpt>
      <trkpt lat="47.45097" lon="-0.62603">
        <ele>64</ele>
        <time>2015-08-25T18:06:30Z</time>
      </trkpt>
      <trkpt lat="47.45101" lon="-0.62621">
        <ele>63</ele>
        <time>2015-08-25T18:06:34Z</time>
      </trkpt>
      <trkpt lat="47.45106" lon="-0.6264">
        <ele>63</ele>
        <time>2015-08-25T18:06:40Z</time>
      </trkpt>
      <trkpt lat="47.45123" lon="-0.62662">
        <ele>63</ele>
        <time>2015-08-25T18:06:49Z</time>
      </trkpt>
      <trkpt lat="47.45127" lon="-0.62673">
        <ele>63</ele>
        <time>2015-08-25T18:06:52Z</time>
      </trkpt>
      <trkpt lat="47.45147" lon="-0.62711">
        <ele>62</ele>
        <time>2015-08-25T18:07:02Z</time>
      </trkpt>
      <trkpt lat="47.45152" lon="-0.62717">
        <ele>62</ele>
        <time>2015-08-25T18:07:05Z</time>
      </trkpt>
      <trkpt lat="47.45155" lon="-0.62732">
        <ele>62</ele>
        <time>2015-08-25T18:07:10Z</time>
      </trkpt>
      <trkpt lat="47.45162" lon="-0.62753">
        <ele>62</ele>
        <time>2015-08-25T18:07:16Z</time>
      </trkpt>
      <trkpt lat="47.45167" lon="-0.62788">
        <ele>61</ele>
        <time>2015-08-25T18:07:27Z</time>
      </trkpt>
      <trkpt lat="47.45171" lon="-0.62795">
        <ele>61</ele>
        <time>2015-08-25T18:07:31Z</time>
      </trkpt>
      <trkpt lat="47.45173" lon="-0.62802">
        <ele>62</ele>
        <time>2015-08-25T18:07:34Z</time>
      </trkpt>
      <trkpt lat="47.45178" lon="-0.62843">
        <ele>62</ele>
        <time>2015-08-25T18:07:45Z</time>
      </trkpt>
      <trkpt lat="47.45179" lon="-0.62845">
        <ele>62</ele>
        <time>2015-08-25T18:07:46Z</time>
      </trkpt>
      <trkpt lat="47.45186" lon="-0.62889">
        <ele>62</ele>
        <time>2015-08-25T18:07:56Z</time>
      </trkpt>
      <trkpt lat="47.4518" lon="-0.62901">
        <ele>62</ele>
        <time>2015-08-25T18:08:02Z</time>
      </trkpt>
      <trkpt lat="47.45169" lon="-0.62919">
        <ele>62</ele>
        <time>2015-08-25T18:08:08Z</time>
      </trkpt>
      <trkpt lat="47.45163" lon="-0.62928">
        <ele>63</ele>
        <time>2015-08-25T18:08:11Z</time>
      </trkpt>
      <trkpt lat="47.45157" lon="-0.62941">
        <ele>63</ele>
        <time>2015-08-25T18:08:16Z</time>
      </trkpt>
      <trkpt lat="47.45147" lon="-0.62956">
        <ele>63</ele>
        <time>2015-08-25T18:08:22Z</time>
      </trkpt>
      <trkpt lat="47.45136" lon="-0.6298">
        <ele>64</ele>
        <time>2015-08-25T18:08:32Z</time>
      </trkpt>
      <trkpt lat="47.45132" lon="-0.62985">
        <ele>64</ele>
        <time>2015-08-25T18:08:34Z</time>
      </trkpt>
      <trkpt lat="47.45123" lon="-0.62999">
        <ele>65</ele>
        <time>2015-08-25T18:08:40Z</time>
      </trkpt>
      <trkpt lat="47.45116" lon="-0.63021">
        <ele>65</ele>
        <time>2015-08-25T18:08:46Z</time>
      </trkpt>
      <trkpt lat="47.45101" lon="-0.63056">
        <ele>65</ele>
        <time>2015-08-25T18:08:57Z</time>
      </trkpt>
      <trkpt lat="47.451" lon="-0.63058">
        <ele>65</ele>
        <time>2015-08-25T18:08:58Z</time>
      </trkpt>
    </trkseg>
  </trk>
  <trk>
    <name><![CDATA[Sequence 3]]></name>
    <trkseg>
      <trkpt lat="47.45104" lon="-0.63065">
        <ele>66</ele>
        <time>2015-08-25T18:12:56Z</time>
      </trkpt>
      <trkpt lat="47.45122" lon="-0.63085">
        <ele>65</ele>
        <time>2015-08-25T18:13:06Z</time>
      </trkpt>
      <trkpt lat="47.45126" lon="-0.6309">
        <ele>66</ele>
        <time>2015-08-25T18:13:08Z</time>
      </trkpt>
      <trkpt lat="47.45136" lon="-0.63103">
        <ele>66</ele>
        <time>2015-08-25T18:13:14Z</time>
      </trkpt>
      <trkpt lat="47.4515" lon="-0.6312">
        <ele>66</ele>
        <time>2015-08-25T18:13:23Z</time>
      </trkpt>
      <trkpt lat="47.45158" lon="-0.63131">
        <ele>66</ele>
        <time>2015-08-25T18:13:28Z</time>
      </trkpt>
      <trkpt lat="47.45165" lon="-0.63141">
        <ele>66</ele>
        <time>2015-08-25T18:13:32Z</time>
      </trkpt>
      <trkpt lat="47.45182" lon="-0.63163">
        <ele>66</ele>
        <time>2015-08-25T18:13:40Z</time>
      </trkpt>
      <trkpt lat="47.45192" lon="-0.63173">
        <ele>66</ele>
        <time>2015-08-25T18:13:45Z</time>
      </trkpt>
      <trkpt lat="47.45203" lon="-0.63187">
        <ele>66</ele>
        <time>2015-08-25T18:13:50Z</time>
      </trkpt>
      <trkpt lat="47.45231" lon="-0.63218">
        <ele>66</ele>
        <time>2015-08-25T18:14:01Z</time>
      </trkpt>
      <trkpt lat="47.45233" lon="-0.63221">
        <ele>66</ele>
        <time>2015-08-25T18:14:02Z</time>
      </trkpt>
      <trkpt lat="47.45247" lon="-0.63239">
        <ele>67</ele>
        <time>2015-08-25T18:14:08Z</time>
      </trkpt>
      <trkpt lat="47.45267" lon="-0.63258">
        <ele>67</ele>
        <time>2015-08-25T18:14:19Z</time>
      </trkpt>
      <trkpt lat="47.45268" lon="-0.63259">
        <ele>67</ele>
        <time>2015-08-25T18:14:20Z</time>
      </trkpt>
      <trkpt lat="47.45276" lon="-0.63272">
        <ele>67</ele>
        <time>2015-08-25T18:14:26Z</time>
      </trkpt>
      <trkpt lat="47.45281" lon="-0.63291">
        <ele>67</ele>
        <time>2015-08-25T18:14:32Z</time>
      </trkpt>
      <trkpt lat="47.453" lon="-0.63315">
        <ele>67</ele>
        <time>2015-08-25T18:14:41Z</time>
      </trkpt>
      <trkpt lat="47.45309" lon="-0.6333">
        <ele>67</ele>
        <time>2015-08-25T18:14:45Z</time>
      </trkpt>
      <trkpt lat="47.45317" lon="-0.63354">
        <ele>67</ele>
        <time>2015-08-25T18:14:51Z</time>
      </trkpt>
      <trkpt lat="47.45325" lon="-0.63376">
        <ele>66</ele>
        <time>2015-08-25T18:14:56Z</time>
      </trkpt>
      <trkpt lat="47.45331" lon="-0.63402">
        <ele>66</ele>
        <time>2015-08-25T18:15:02Z</time>
      </trkpt>
      <trkpt lat="47.45338" lon="-0.63416">
        <ele>66</ele>
        <time>2015-08-25T18:15:08Z</time>
      </trkpt>
      <trkpt lat="47.45343" lon="-0.63438">
        <ele>66</ele>
        <time>2015-08-25T18:15:15Z</time>
      </trkpt>
      <trkpt lat="47.45345" lon="-0.63449">
        <ele>66</ele>
        <time>2015-08-25T18:15:20Z</time>
      </trkpt>
      <trkpt lat="47.45357" lon="-0.63459">
        <ele>66</ele>
        <time>2015-08-25T18:15:26Z</time>
      </trkpt>
      <trkpt lat="47.45378" lon="-0.63498">
        <ele>66</ele>
        <time>2015-08-25T18:15:35Z</time>
      </trkpt>
      <trkpt lat="47.45385" lon="-0.63508">
        <ele>66</ele>
        <time>2015-08-25T18:15:38Z</time>
      </trkpt>
      <trkpt lat="47.45395" lon="-0.63521">
        <ele>65</ele>
        <time>2015-08-25T18:15:44Z</time>
      </trkpt>
      <trkpt lat="47.45404" lon="-0.63535">
        <ele>65</ele>
        <time>2015-08-25T18:15:50Z</time>
      </trkpt>
      <trkpt lat="47.45405" lon="-0.6353">
        <ele>65</ele>
        <time>2015-08-25T18:15:57Z</time>
      </trkpt>
      <trkpt lat="47.45387" lon="-0.63498">
        <ele>66</ele>
        <time>2015-08-25T18:16:07Z</time>
      </trkpt>
      <trkpt lat="47.45383" lon="-0.63491">
        <ele>66</ele>
        <time>2015-08-25T18:16:09Z</time>
      </trkpt>
      <trkpt lat="47.45382" lon="-0.63476">
        <ele>65</ele>
        <time>2015-08-25T18:16:14Z</time>
      </trkpt>
      <trkpt lat="47.45373" lon="-0.63458">
        <ele>65</ele>
        <time>2015-08-25T18:16:20Z</time>
      </trkpt>
      <trkpt lat="47.45354" lon="-0.63432">
        <ele>65</ele>
        <time>2015-08-25T18:16:31Z</time>
      </trkpt>
      <trkpt lat="47.4535" lon="-0.63415">
        <ele>65</ele>
        <time>2015-08-25T18:16:36Z</time>
      </trkpt>
      <trkpt lat="47.45344" lon="-0.63405">
        <ele>66</ele>
        <time>2015-08-25T18:16:39Z</time>
      </trkpt>
      <trkpt lat="47.45329" lon="-0.63388">
        <ele>66</ele>
        <time>2015-08-25T18:16:44Z</time>
      </trkpt>
      <trkpt lat="47.45316" lon="-0.63349">
        <ele>67</ele>
        <time>2015-08-25T18:16:54Z</time>
      </trkpt>
      <trkpt lat="47.45314" lon="-0.63342">
        <ele>67</ele>
        <time>2015-08-25T18:16:56Z</time>
      </trkpt>
      <trkpt lat="47.45302" lon="-0.63315">
        <ele>67</ele>
        <time>2015-08-25T18:17:04Z</time>
      </trkpt>
      <trkpt lat="47.45297" lon="-0.63298">
        <ele>67</ele>
        <time>2015-08-25T18:17:11Z</time>
      </trkpt>
      <trkpt lat="47.45294" lon="-0.63288">
        <ele>67</ele>
        <time>2015-08-25T18:17:14Z</time>
      </trkpt>
      <trkpt lat="47.45278" lon="-0.63269">
        <ele>67</ele>
        <time>2015-08-25T18:17:22Z</time>
      </trkpt>
      <trkpt lat="47.45267" lon="-0.63253">
        <ele>67</ele>
        <time>2015-08-25T18:17:26Z</time>
      </trkpt>
      <trkpt lat="47.45256" lon="-0.63232">
        <ele>67</ele>
        <time>2015-08-25T18:17:32Z</time>
      </trkpt>
      <trkpt lat="47.45241" lon="-0.63214">
        <ele>67</ele>
        <time>2015-08-25T18:17:39Z</time>
      </trkpt>
      <trkpt lat="47.45229" lon="-0.63207">
        <ele>66</ele>
        <time>2015-08-25T18:17:44Z</time>
      </trkpt>
      <trkpt lat="47.4521" lon="-0.63178">
        <ele>66</ele>
        <time>2015-08-25T18:17:53Z</time>
      </trkpt>
      <trkpt lat="47.45207" lon="-0.63171">
        <ele>66</ele>
        <time>2015-08-25T18:17:56Z</time>
      </trkpt>
      <trkpt lat="47.45201" lon="-0.63153">
        <ele>66</ele>
        <time>2015-08-25T18:18:03Z</time>
      </trkpt>
      <trkpt lat="47.45193" lon="-0.63143">
        <ele>66</ele>
        <time>2015-08-25T18:18:08Z</time>
      </trkpt>
      <trkpt lat="47.45164" lon="-0.63115">
        <ele>66</ele>
        <time>2015-08-25T18:18:19Z</time>
      </trkpt>
      <trkpt lat="47.4516" lon="-0.63114">
        <ele>66</ele>
        <time>2015-08-25T18:18:20Z</time>
      </trkpt>
      <trkpt lat="47.45137" lon="-0.63086">
        <ele>65</ele>
        <time>2015-08-25T18:18:30Z</time>
      </trkpt>
      <trkpt lat="47.45132" lon="-0.63082">
        <ele>65</ele>
        <time>2015-08-25T18:18:32Z</time>
      </trkpt>
      <trkpt lat="47.45121" lon="-0.63064">
        <ele>65</ele>
        <time>2015-08-25T18:18:41Z</time>
      </trkpt>
      <trkpt lat="47.4512" lon="-0.63054">
        <ele>65</ele>
        <time>2015-08-25T18:18:46Z</time>
      </trkpt>
      <trkpt lat="47.45121" lon="-0.63047">
        <ele>65</ele>
        <time>2015-08-25T18:18:50Z</time>
      </trkpt>
      <trkpt lat="47.45127" lon="-0.63032">
        <ele>65</ele>
        <time>2015-08-25T18:18:57Z</time>
      </trkpt>
      <trkpt lat="47.45134" lon="-0.63026">
        <ele>65</ele>
        <time>2015-08-25T18:19:02Z</time>
      </trkpt>
      <trkpt lat="47.45143" lon="-0.63008">
        <ele>65</ele>
        <time>2015-08-25T18:19:08Z</time>
      </trkpt>
      <trkpt lat="47.45148" lon="-0.62992">
        <ele>64</ele>
        <time>2015-08-25T18:19:14Z</time>
      </trkpt>
      <trkpt lat="47.45159" lon="-0.62971">
        <ele>64</ele>
        <time>2015-08-25T18:19:22Z</time>
      </trkpt>
      <trkpt lat="47.45172" lon="-0.62947">
        <ele>63</ele>
        <time>2015-08-25T18:19:28Z</time>
      </trkpt>
      <trkpt lat="47.45179" lon="-0.62933">
        <ele>63</ele>
        <time>2015-08-25T18:19:32Z</time>
      </trkpt>
      <trkpt lat="47.45191" lon="-0.62893">
        <ele>62</ele>
        <time>2015-08-25T18:19:40Z</time>
      </trkpt>
      <trkpt lat="47.45188" lon="-0.62875">
        <ele>62</ele>
        <time>2015-08-25T18:19:44Z</time>
      </trkpt>
      <trkpt lat="47.45187" lon="-0.62848">
        <ele>62</ele>
        <time>2015-08-25T18:19:50Z</time>
      </trkpt>
      <trkpt lat="47.45187" lon="-0.62813">
        <ele>62</ele>
        <time>2015-08-25T18:19:56Z</time>
      </trkpt>
      <trkpt lat="47.45182" lon="-0.62784">
        <ele>61</ele>
        <time>2015-08-25T18:20:02Z</time>
      </trkpt>
      <trkpt lat="47.45176" lon="-0.62762">
        <ele>61</ele>
        <time>2015-08-25T18:20:08Z</time>
      </trkpt>
      <trkpt lat="47.45171" lon="-0.62739">
        <ele>61</ele>
        <time>2015-08-25T18:20:15Z</time>
      </trkpt>
      <trkpt lat="47.45157" lon="-0.62709">
        <ele>62</ele>
        <time>2015-08-25T18:20:25Z</time>
      </trkpt>
      <trkpt lat="47.45156" lon="-0.62706">
        <ele>62</ele>
        <time>2015-08-25T18:20:26Z</time>
      </trkpt>
      <trkpt lat="47.45146" lon="-0.6269">
        <ele>62</ele>
        <time>2015-08-25T18:20:32Z</time>
      </trkpt>
      <trkpt lat="47.45133" lon="-0.62664">
        <ele>63</ele>
        <time>2015-08-25T18:20:39Z</time>
      </trkpt>
      <trkpt lat="47.45129" lon="-0.62648">
        <ele>63</ele>
        <time>2015-08-25T18:20:44Z</time>
      </trkpt>
      <trkpt lat="47.45121" lon="-0.62634">
        <ele>63</ele>
        <time>2015-08-25T18:20:50Z</time>
      </trkpt>
      <trkpt lat="47.45105" lon="-0.62619">
        <ele>63</ele>
        <time>2015-08-25T18:20:56Z</time>
      </trkpt>
      <trkpt lat="47.45086" lon="-0.62583">
        <ele>64</ele>
        <time>2015-08-25T18:21:07Z</time>
      </trkpt>
      <trkpt lat="47.45085" lon="-0.6258">
        <ele>64</ele>
        <time>2015-08-25T18:21:08Z</time>
      </trkpt>
      <trkpt lat="47.45083" lon="-0.62552">
        <ele>64</ele>
        <time>2015-08-25T18:21:16Z</time>
      </trkpt>
      <trkpt lat="47.45079" lon="-0.62538">
        <ele>64</ele>
        <time>2015-08-25T18:21:20Z</time>
      </trkpt>
      <trkpt lat="47.45072" lon="-0.6252">
        <ele>64</ele>
        <time>2015-08-25T18:21:26Z</time>
      </trkpt>
      <trkpt lat="47.45064" lon="-0.62506">
        <ele>64</ele>
        <time>2015-08-25T18:21:32Z</time>
      </trkpt>
      <trkpt lat="47.45054" lon="-0.62477">
        <ele>65</ele>
        <time>2015-08-25T18:21:43Z</time>
      </trkpt>
      <trkpt lat="47.4505" lon="-0.6246">
        <ele>65</ele>
        <time>2015-08-25T18:21:48Z</time>
      </trkpt>
      <trkpt lat="47.45049" lon="-0.62452">
        <ele>65</ele>
        <time>2015-08-25T18:21:50Z</time>
      </trkpt>
      <trkpt lat="47.45041" lon="-0.62429">
        <ele>65</ele>
        <time>2015-08-25T18:21:56Z</time>
      </trkpt>
      <trkpt lat="47.45032" lon="-0.62399">
        <ele>65</ele>
        <time>2015-08-25T18:22:05Z</time>
      </trkpt>
      <trkpt lat="47.45032" lon="-0.62404">
        <ele>65</ele>
        <time>2015-08-25T18:22:10Z</time>
      </trkpt>
      <trkpt lat="47.45033" lon="-0.62411">
        <ele>65</ele>
        <time>2015-08-25T18:22:14Z</time>
      </trkpt>
      <trkpt lat="47.45036" lon="-0.62431">
        <ele>65</ele>
        <time>2015-08-25T18:22:22Z</time>
      </trkpt>
      <trkpt lat="47.45036" lon="-0.62442">
        <ele>65</ele>
        <time>2015-08-25T18:22:26Z</time>
      </trkpt>
      <trkpt lat="47.45038" lon="-0.6245">
        <ele>65</ele>
        <time>2015-08-25T18:22:35Z</time>
      </trkpt>
      <trkpt lat="47.45038" lon="-0.62452">
        <ele>65</ele>
        <time>2015-08-25T18:22:43Z</time>
      </trkpt>
      <trkpt lat="47.45038" lon="-0.62453">
        <ele>65</ele>
        <time>2015-08-25T18:22:44Z</time>
      </trkpt>
      <trkpt lat="47.45039" lon="-0.62457">
        <ele>65</ele>
        <time>2015-08-25T18:22:50Z</time>
      </trkpt>
      <trkpt lat="47.45045" lon="-0.62483">
        <ele>65</ele>
        <time>2015-08-25T18:22:56Z</time>
      </trkpt>
      <trkpt lat="47.45063" lon="-0.62561">
        <ele>64</ele>
        <time>2015-08-25T18:23:07Z</time>
      </trkpt>
      <trkpt lat="47.45067" lon="-0.62571">
        <ele>64</ele>
        <time>2015-08-25T18:23:10Z</time>
      </trkpt>
      <trkpt lat="47.45075" lon="-0.62591">
        <ele>64</ele>
        <time>2015-08-25T18:23:15Z</time>
      </trkpt>
      <trkpt lat="47.45086" lon="-0.62613">
        <ele>64</ele>
        <time>2015-08-25T18:23:21Z</time>
      </trkpt>
      <trkpt lat="47.45107" lon="-0.62643">
        <ele>63</ele>
        <time>2015-08-25T18:23:31Z</time>
      </trkpt>
      <trkpt lat="47.45109" lon="-0.62647">
        <ele>63</ele>
        <time>2015-08-25T18:23:32Z</time>
      </trkpt>
      <trkpt lat="47.45131" lon="-0.62684">
        <ele>63</ele>
        <time>2015-08-25T18:23:41Z</time>
      </trkpt>
      <trkpt lat="47.45148" lon="-0.62715">
        <ele>62</ele>
        <time>2015-08-25T18:23:49Z</time>
      </trkpt>
      <trkpt lat="47.45148" lon="-0.62716">
        <ele>62</ele>
        <time>2015-08-25T18:23:50Z</time>
      </trkpt>
      <trkpt lat="47.45153" lon="-0.62736">
        <ele>62</ele>
        <time>2015-08-25T18:23:56Z</time>
      </trkpt>
      <trkpt lat="47.45166" lon="-0.62781">
        <ele>61</ele>
        <time>2015-08-25T18:24:06Z</time>
      </trkpt>
      <trkpt lat="47.45177" lon="-0.62799">
        <ele>61</ele>
        <time>2015-08-25T18:24:12Z</time>
      </trkpt>
      <trkpt lat="47.45179" lon="-0.62806">
        <ele>62</ele>
        <time>2015-08-25T18:24:14Z</time>
      </trkpt>
      <trkpt lat="47.45191" lon="-0.62859">
        <ele>62</ele>
        <time>2015-08-25T18:24:25Z</time>
      </trkpt>
      <trkpt lat="47.45192" lon="-0.62863">
        <ele>62</ele>
        <time>2015-08-25T18:24:26Z</time>
      </trkpt>
      <trkpt lat="47.45194" lon="-0.62882">
        <ele>62</ele>
        <time>2015-08-25T18:24:32Z</time>
      </trkpt>
      <trkpt lat="47.45187" lon="-0.62896">
        <ele>62</ele>
        <time>2015-08-25T18:24:38Z</time>
      </trkpt>
      <trkpt lat="47.45178" lon="-0.62914">
        <ele>62</ele>
        <time>2015-08-25T18:24:45Z</time>
      </trkpt>
      <trkpt lat="47.45167" lon="-0.62935">
        <ele>63</ele>
        <time>2015-08-25T18:24:52Z</time>
      </trkpt>
      <trkpt lat="47.4516" lon="-0.62946">
        <ele>63</ele>
        <time>2015-08-25T18:24:56Z</time>
      </trkpt>
      <trkpt lat="47.45148" lon="-0.62963">
        <ele>64</ele>
        <time>2015-08-25T18:25:02Z</time>
      </trkpt>
      <trkpt lat="47.45137" lon="-0.62981">
        <ele>64</ele>
        <time>2015-08-25T18:25:08Z</time>
      </trkpt>
      <trkpt lat="47.45125" lon="-0.62996">
        <ele>65</ele>
        <time>2015-08-25T18:25:14Z</time>
      </trkpt>
      <trkpt lat="47.45119" lon="-0.6302">
        <ele>65</ele>
        <time>2015-08-25T18:25:20Z</time>
      </trkpt>
      <trkpt lat="47.45123" lon="-0.63071">
        <ele>65</ele>
        <time>2015-08-25T18:25:29Z</time>
      </trkpt>
      <trkpt lat="47.45132" lon="-0.63097">
        <ele>66</ele>
        <time>2015-08-25T18:25:35Z</time>
      </trkpt>
      <trkpt lat="47.4514" lon="-0.63104">
        <ele>66</ele>
        <time>2015-08-25T18:25:38Z</time>
      </trkpt>
      <trkpt lat="47.45158" lon="-0.63123">
        <ele>66</ele>
        <time>2015-08-25T18:25:46Z</time>
      </trkpt>
      <trkpt lat="47.45162" lon="-0.63135">
        <ele>66</ele>
        <time>2015-08-25T18:25:50Z</time>
      </trkpt>
      <trkpt lat="47.45186" lon="-0.63157">
        <ele>66</ele>
        <time>2015-08-25T18:26:00Z</time>
      </trkpt>
      <trkpt lat="47.45189" lon="-0.63163">
        <ele>66</ele>
        <time>2015-08-25T18:26:02Z</time>
      </trkpt>
      <trkpt lat="47.45203" lon="-0.63182">
        <ele>66</ele>
        <time>2015-08-25T18:26:08Z</time>
      </trkpt>
      <trkpt lat="47.45217" lon="-0.63201">
        <ele>66</ele>
        <time>2015-08-25T18:26:14Z</time>
      </trkpt>
      <trkpt lat="47.45236" lon="-0.63226">
        <ele>67</ele>
        <time>2015-08-25T18:26:22Z</time>
      </trkpt>
      <trkpt lat="47.45245" lon="-0.63235">
        <ele>67</ele>
        <time>2015-08-25T18:26:26Z</time>
      </trkpt>
      <trkpt lat="47.45268" lon="-0.63273">
        <ele>67</ele>
        <time>2015-08-25T18:26:37Z</time>
      </trkpt>
      <trkpt lat="47.45273" lon="-0.63279">
        <ele>67</ele>
        <time>2015-08-25T18:26:39Z</time>
      </trkpt>
      <trkpt lat="47.45286" lon="-0.6329">
        <ele>67</ele>
        <time>2015-08-25T18:26:44Z</time>
      </trkpt>
      <trkpt lat="47.45301" lon="-0.63331">
        <ele>67</ele>
        <time>2015-08-25T18:26:54Z</time>
      </trkpt>
      <trkpt lat="47.45308" lon="-0.63346">
        <ele>67</ele>
        <time>2015-08-25T18:26:58Z</time>
      </trkpt>
      <trkpt lat="47.45315" lon="-0.63362">
        <ele>67</ele>
        <time>2015-08-25T18:27:02Z</time>
      </trkpt>
      <trkpt lat="47.45326" lon="-0.63381">
        <ele>66</ele>
        <time>2015-08-25T18:27:08Z</time>
      </trkpt>
      <trkpt lat="47.45334" lon="-0.63409">
        <ele>66</ele>
        <time>2015-08-25T18:27:15Z</time>
      </trkpt>
      <trkpt lat="47.45334" lon="-0.63434">
        <ele>66</ele>
        <time>2015-08-25T18:27:20Z</time>
      </trkpt>
      <trkpt lat="47.45346" lon="-0.63447">
        <ele>66</ele>
        <time>2015-08-25T18:27:26Z</time>
      </trkpt>
      <trkpt lat="47.45363" lon="-0.63476">
        <ele>66</ele>
        <time>2015-08-25T18:27:37Z</time>
      </trkpt>
      <trkpt lat="47.45375" lon="-0.63493">
        <ele>66</ele>
        <time>2015-08-25T18:27:42Z</time>
      </trkpt>
      <trkpt lat="47.4538" lon="-0.63499">
        <ele>66</ele>
        <time>2015-08-25T18:27:44Z</time>
      </trkpt>
      <trkpt lat="47.45395" lon="-0.63526">
        <ele>65</ele>
        <time>2015-08-25T18:27:51Z</time>
      </trkpt>
      <trkpt lat="47.45403" lon="-0.6355">
        <ele>66</ele>
        <time>2015-08-25T18:27:57Z</time>
      </trkpt>
      <trkpt lat="47.45425" lon="-0.63573">
        <ele>65</ele>
        <time>2015-08-25T18:28:06Z</time>
      </trkpt>
      <trkpt lat="47.4543" lon="-0.63577">
        <ele>65</ele>
        <time>2015-08-25T18:28:08Z</time>
      </trkpt>
      <trkpt lat="47.45456" lon="-0.63612">
        <ele>65</ele>
        <time>2015-08-25T18:28:19Z</time>
      </trkpt>
      <trkpt lat="47.45464" lon="-0.6362">
        <ele>64</ele>
        <time>2015-08-25T18:28:22Z</time>
      </trkpt>
      <trkpt lat="47.45478" lon="-0.6363">
        <ele>64</ele>
        <time>2015-08-25T18:28:27Z</time>
      </trkpt>
      <trkpt lat="47.4549" lon="-0.63658">
        <ele>64</ele>
        <time>2015-08-25T18:28:33Z</time>
      </trkpt>
      <trkpt lat="47.45502" lon="-0.63695">
        <ele>64</ele>
        <time>2015-08-25T18:28:42Z</time>
      </trkpt>
      <trkpt lat="47.45507" lon="-0.637">
        <ele>64</ele>
        <time>2015-08-25T18:28:44Z</time>
      </trkpt>
      <trkpt lat="47.45521" lon="-0.63723">
        <ele>64</ele>
        <time>2015-08-25T18:28:51Z</time>
      </trkpt>
      <trkpt lat="47.45531" lon="-0.6376">
        <ele>64</ele>
        <time>2015-08-25T18:29:00Z</time>
      </trkpt>
      <trkpt lat="47.45536" lon="-0.63773">
        <ele>64</ele>
        <time>2015-08-25T18:29:03Z</time>
      </trkpt>
      <trkpt lat="47.45545" lon="-0.63794">
        <ele>64</ele>
        <time>2015-08-25T18:29:09Z</time>
      </trkpt>
      <trkpt lat="47.4555" lon="-0.63812">
        <ele>64</ele>
        <time>2015-08-25T18:29:14Z</time>
      </trkpt>
      <trkpt lat="47.45559" lon="-0.63834">
        <ele>64</ele>
        <time>2015-08-25T18:29:20Z</time>
      </trkpt>
      <trkpt lat="47.45565" lon="-0.63863">
        <ele>64</ele>
        <time>2015-08-25T18:29:26Z</time>
      </trkpt>
      <trkpt lat="47.45569" lon="-0.63892">
        <ele>65</ele>
        <time>2015-08-25T18:29:32Z</time>
      </trkpt>
      <trkpt lat="47.45578" lon="-0.63921">
        <ele>66</ele>
        <time>2015-08-25T18:29:39Z</time>
      </trkpt>
      <trkpt lat="47.4559" lon="-0.63953">
        <ele>66</ele>
        <time>2015-08-25T18:29:47Z</time>
      </trkpt>
      <trkpt lat="47.45596" lon="-0.63963">
        <ele>67</ele>
        <time>2015-08-25T18:29:50Z</time>
      </trkpt>
      <trkpt lat="47.45611" lon="-0.63983">
        <ele>67</ele>
        <time>2015-08-25T18:29:57Z</time>
      </trkpt>
      <trkpt lat="47.45624" lon="-0.64008">
        <ele>67</ele>
        <time>2015-08-25T18:30:05Z</time>
      </trkpt>
      <trkpt lat="47.45631" lon="-0.64022">
        <ele>67</ele>
        <time>2015-08-25T18:30:09Z</time>
      </trkpt>
      <trkpt lat="47.4564" lon="-0.64038">
        <ele>68</ele>
        <time>2015-08-25T18:30:14Z</time>
      </trkpt>
      <trkpt lat="47.45647" lon="-0.64058">
        <ele>68</ele>
        <time>2015-08-25T18:30:20Z</time>
      </trkpt>
    </trkseg>
  </trk>
  <trk>
    <name><![CDATA[Sequence 4]]></name>
    <trkseg>
      <trkpt lat="47.45735" lon="-0.64123">
        <ele>69</ele>
        <time>2015-08-25T18:31:48Z</time>
      </trkpt>
      <trkpt lat="47.4574" lon="-0.64118">
        <ele>69</ele>
        <time>2015-08-25T18:31:54Z</time>
      </trkpt>
      <trkpt lat="47.45762" lon="-0.641">
        <ele>69</ele>
        <time>2015-08-25T18:32:03Z</time>
      </trkpt>
      <trkpt lat="47.45772" lon="-0.64093">
        <ele>68</ele>
        <time>2015-08-25T18:32:07Z</time>
      </trkpt>
      <trkpt lat="47.45782" lon="-0.64087">
        <ele>68</ele>
        <time>2015-08-25T18:32:12Z</time>
      </trkpt>
      <trkpt lat="47.45795" lon="-0.6408">
        <ele>68</ele>
        <time>2015-08-25T18:32:18Z</time>
      </trkpt>
      <trkpt lat="47.45807" lon="-0.64068">
        <ele>68</ele>
        <time>2015-08-25T18:32:24Z</time>
      </trkpt>
      <trkpt lat="47.45826" lon="-0.64046">
        <ele>67</ele>
        <time>2015-08-25T18:32:32Z</time>
      </trkpt>
      <trkpt lat="47.45836" lon="-0.64036">
        <ele>67</ele>
        <time>2015-08-25T18:32:36Z</time>
      </trkpt>
      <trkpt lat="47.45854" lon="-0.6402">
        <ele>66</ele>
        <time>2015-08-25T18:32:42Z</time>
      </trkpt>
      <trkpt lat="47.45863" lon="-0.64012">
        <ele>66</ele>
        <time>2015-08-25T18:32:48Z</time>
      </trkpt>
      <trkpt lat="47.45879" lon="-0.63993">
        <ele>65</ele>
        <time>2015-08-25T18:32:55Z</time>
      </trkpt>
      <trkpt lat="47.45891" lon="-0.63981">
        <ele>65</ele>
        <time>2015-08-25T18:33:00Z</time>
      </trkpt>
      <trkpt lat="47.45909" lon="-0.63958">
        <ele>65</ele>
        <time>2015-08-25T18:33:09Z</time>
      </trkpt>
      <trkpt lat="47.45917" lon="-0.63946">
        <ele>65</ele>
        <time>2015-08-25T18:33:13Z</time>
      </trkpt>
      <trkpt lat="47.45929" lon="-0.63936">
        <ele>64</ele>
        <time>2015-08-25T18:33:22Z</time>
      </trkpt>
      <trkpt lat="47.45935" lon="-0.6392">
        <ele>64</ele>
        <time>2015-08-25T18:33:28Z</time>
      </trkpt>
      <trkpt lat="47.45944" lon="-0.6391">
        <ele>64</ele>
        <time>2015-08-25T18:33:32Z</time>
      </trkpt>
      <trkpt lat="47.45953" lon="-0.63902">
        <ele>64</ele>
        <time>2015-08-25T18:33:37Z</time>
      </trkpt>
      <trkpt lat="47.45962" lon="-0.63897">
        <ele>64</ele>
        <time>2015-08-25T18:33:42Z</time>
      </trkpt>
      <trkpt lat="47.45975" lon="-0.63885">
        <ele>64</ele>
        <time>2015-08-25T18:33:48Z</time>
      </trkpt>
      <trkpt lat="47.45989" lon="-0.63875">
        <ele>63</ele>
        <time>2015-08-25T18:33:54Z</time>
      </trkpt>
      <trkpt lat="47.45998" lon="-0.63868">
        <ele>64</ele>
        <time>2015-08-25T18:34:02Z</time>
      </trkpt>
      <trkpt lat="47.46005" lon="-0.63864">
        <ele>64</ele>
        <time>2015-08-25T18:34:06Z</time>
      </trkpt>
      <trkpt lat="47.46024" lon="-0.63858">
        <ele>64</ele>
        <time>2015-08-25T18:34:13Z</time>
      </trkpt>
      <trkpt lat="47.46036" lon="-0.63856">
        <ele>65</ele>
        <time>2015-08-25T18:34:18Z</time>
      </trkpt>
      <trkpt lat="47.46052" lon="-0.63845">
        <ele>66</ele>
        <time>2015-08-25T18:34:24Z</time>
      </trkpt>
      <trkpt lat="47.46074" lon="-0.63825">
        <ele>67</ele>
        <time>2015-08-25T18:34:35Z</time>
      </trkpt>
      <trkpt lat="47.46084" lon="-0.63818">
        <ele>68</ele>
        <time>2015-08-25T18:34:38Z</time>
      </trkpt>
      <trkpt lat="47.46109" lon="-0.63797">
        <ele>70</ele>
        <time>2015-08-25T18:34:47Z</time>
      </trkpt>
      <trkpt lat="47.46111" lon="-0.63795">
        <ele>70</ele>
        <time>2015-08-25T18:34:48Z</time>
      </trkpt>
      <trkpt lat="47.46126" lon="-0.63779">
        <ele>71</ele>
        <time>2015-08-25T18:34:55Z</time>
      </trkpt>
      <trkpt lat="47.46132" lon="-0.63769">
        <ele>71</ele>
        <time>2015-08-25T18:35:00Z</time>
      </trkpt>
      <trkpt lat="47.46145" lon="-0.63759">
        <ele>72</ele>
        <time>2015-08-25T18:35:06Z</time>
      </trkpt>
      <trkpt lat="47.46158" lon="-0.63754">
        <ele>73</ele>
        <time>2015-08-25T18:35:12Z</time>
      </trkpt>
      <trkpt lat="47.46178" lon="-0.63732">
        <ele>74</ele>
        <time>2015-08-25T18:35:23Z</time>
      </trkpt>
      <trkpt lat="47.46181" lon="-0.63729">
        <ele>74</ele>
        <time>2015-08-25T18:35:25Z</time>
      </trkpt>
      <trkpt lat="47.46198" lon="-0.6371">
        <ele>75</ele>
        <time>2015-08-25T18:35:33Z</time>
      </trkpt>
      <trkpt lat="47.46203" lon="-0.63709">
        <ele>75</ele>
        <time>2015-08-25T18:35:36Z</time>
      </trkpt>
      <trkpt lat="47.46222" lon="-0.63688">
        <ele>75</ele>
        <time>2015-08-25T18:35:47Z</time>
      </trkpt>
      <trkpt lat="47.4623" lon="-0.63679">
        <ele>75</ele>
        <time>2015-08-25T18:35:52Z</time>
      </trkpt>
      <trkpt lat="47.46235" lon="-0.63673">
        <ele>75</ele>
        <time>2015-08-25T18:35:54Z</time>
      </trkpt>
      <trkpt lat="47.46253" lon="-0.63657">
        <ele>76</ele>
        <time>2015-08-25T18:36:00Z</time>
      </trkpt>
      <trkpt lat="47.46274" lon="-0.63641">
        <ele>77</ele>
        <time>2015-08-25T18:36:09Z</time>
      </trkpt>
      <trkpt lat="47.46291" lon="-0.6364">
        <ele>79</ele>
        <time>2015-08-25T18:36:17Z</time>
      </trkpt>
      <trkpt lat="47.46293" lon="-0.6364">
        <ele>79</ele>
        <time>2015-08-25T18:36:18Z</time>
      </trkpt>
      <trkpt lat="47.46313" lon="-0.6364">
        <ele>80</ele>
        <time>2015-08-25T18:36:29Z</time>
      </trkpt>
      <trkpt lat="47.46321" lon="-0.63643">
        <ele>80</ele>
        <time>2015-08-25T18:36:34Z</time>
      </trkpt>
      <trkpt lat="47.46325" lon="-0.63644">
        <ele>80</ele>
        <time>2015-08-25T18:36:36Z</time>
      </trkpt>
      <trkpt lat="47.46335" lon="-0.63648">
        <ele>81</ele>
        <time>2015-08-25T18:36:42Z</time>
      </trkpt>
      <trkpt lat="47.46362" lon="-0.63664">
        <ele>81</ele>
        <time>2015-08-25T18:36:52Z</time>
      </trkpt>
      <trkpt lat="47.46369" lon="-0.63669">
        <ele>81</ele>
        <time>2015-08-25T18:36:55Z</time>
      </trkpt>
      <trkpt lat="47.46382" lon="-0.63677">
        <ele>81</ele>
        <time>2015-08-25T18:37:00Z</time>
      </trkpt>
      <trkpt lat="47.46404" lon="-0.63691">
        <ele>82</ele>
        <time>2015-08-25T18:37:09Z</time>
      </trkpt>
      <trkpt lat="47.46412" lon="-0.63699">
        <ele>82</ele>
        <time>2015-08-25T18:37:13Z</time>
      </trkpt>
      <trkpt lat="47.46419" lon="-0.6371">
        <ele>82</ele>
        <time>2015-08-25T18:37:18Z</time>
      </trkpt>
      <trkpt lat="47.46439" lon="-0.63738">
        <ele>83</ele>
        <time>2015-08-25T18:37:27Z</time>
      </trkpt>
      <trkpt lat="47.46459" lon="-0.63735">
        <ele>83</ele>
        <time>2015-08-25T18:37:34Z</time>
      </trkpt>
      <trkpt lat="47.46474" lon="-0.63732">
        <ele>83</ele>
        <time>2015-08-25T18:37:38Z</time>
      </trkpt>
      <trkpt lat="47.46494" lon="-0.63727">
        <ele>83</ele>
        <time>2015-08-25T18:37:44Z</time>
      </trkpt>
      <trkpt lat="47.46508" lon="-0.63722">
        <ele>83</ele>
        <time>2015-08-25T18:37:49Z</time>
      </trkpt>
      <trkpt lat="47.46521" lon="-0.63714">
        <ele>83</ele>
        <time>2015-08-25T18:37:56Z</time>
      </trkpt>
      <trkpt lat="47.46546" lon="-0.63692">
        <ele>82</ele>
        <time>2015-08-25T18:38:04Z</time>
      </trkpt>
      <trkpt lat="47.46564" lon="-0.63682">
        <ele>81</ele>
        <time>2015-08-25T18:38:09Z</time>
      </trkpt>
      <trkpt lat="47.46571" lon="-0.6368">
        <ele>81</ele>
        <time>2015-08-25T18:38:12Z</time>
      </trkpt>
      <trkpt lat="47.46581" lon="-0.63679">
        <ele>81</ele>
        <time>2015-08-25T18:38:18Z</time>
      </trkpt>
      <trkpt lat="47.46595" lon="-0.6367">
        <ele>81</ele>
        <time>2015-08-25T18:38:24Z</time>
      </trkpt>
      <trkpt lat="47.46622" lon="-0.63657">
        <ele>80</ele>
        <time>2015-08-25T18:38:34Z</time>
      </trkpt>
      <trkpt lat="47.46627" lon="-0.63654">
        <ele>79</ele>
        <time>2015-08-25T18:38:36Z</time>
      </trkpt>
      <trkpt lat="47.4664" lon="-0.63643">
        <ele>79</ele>
        <time>2015-08-25T18:38:42Z</time>
      </trkpt>
      <trkpt lat="47.46652" lon="-0.63639">
        <ele>78</ele>
        <time>2015-08-25T18:38:53Z</time>
      </trkpt>
    </trkseg>
  </trk>
  <trk>
    <name><![CDATA[Sequence 5]]></name>
    <trkseg>
      <trkpt lat="47.46688" lon="-0.63598">
        <ele>76</ele>
        <time>2015-08-25T18:39:25Z</time>
      </trkpt>
      <trkpt lat="47.46692" lon="-0.63588">
        <ele>76</ele>
        <time>2015-08-25T18:39:31Z</time>
      </trkpt>
      <trkpt lat="47.46692" lon="-0.63574">
        <ele>76</ele>
        <time>2015-08-25T18:39:37Z</time>
      </trkpt>
      <trkpt lat="47.46693" lon="-0.63557">
        <ele>75</ele>
        <time>2015-08-25T18:39:43Z</time>
      </trkpt>
      <trkpt lat="47.46684" lon="-0.63534">
        <ele>75</ele>
        <time>2015-08-25T18:39:49Z</time>
      </trkpt>
      <trkpt lat="47.46666" lon="-0.63506">
        <ele>75</ele>
        <time>2015-08-25T18:39:57Z</time>
      </trkpt>
      <trkpt lat="47.46655" lon="-0.63488">
        <ele>75</ele>
        <time>2015-08-25T18:40:02Z</time>
      </trkpt>
      <trkpt lat="47.46648" lon="-0.63472">
        <ele>75</ele>
        <time>2015-08-25T18:40:07Z</time>
      </trkpt>
      <trkpt lat="47.46655" lon="-0.63428">
        <ele>75</ele>
        <time>2015-08-25T18:40:18Z</time>
      </trkpt>
      <trkpt lat="47.46656" lon="-0.63424">
        <ele>75</ele>
        <time>2015-08-25T18:40:19Z</time>
      </trkpt>
      <trkpt lat="47.46659" lon="-0.63396">
        <ele>74</ele>
        <time>2015-08-25T18:40:25Z</time>
      </trkpt>
      <trkpt lat="47.46661" lon="-0.63369">
        <ele>74</ele>
        <time>2015-08-25T18:40:32Z</time>
      </trkpt>
      <trkpt lat="47.46653" lon="-0.63328">
        <ele>74</ele>
        <time>2015-08-25T18:40:42Z</time>
      </trkpt>
      <trkpt lat="47.46636" lon="-0.63315">
        <ele>74</ele>
        <time>2015-08-25T18:40:48Z</time>
      </trkpt>
      <trkpt lat="47.46621" lon="-0.63314">
        <ele>74</ele>
        <time>2015-08-25T18:40:54Z</time>
      </trkpt>
      <trkpt lat="47.46619" lon="-0.63314">
        <ele>74</ele>
        <time>2015-08-25T18:40:55Z</time>
      </trkpt>
      <trkpt lat="47.46599" lon="-0.63312">
        <ele>75</ele>
        <time>2015-08-25T18:41:01Z</time>
      </trkpt>
      <trkpt lat="47.46589" lon="-0.63288">
        <ele>75</ele>
        <time>2015-08-25T18:41:09Z</time>
      </trkpt>
      <trkpt lat="47.46587" lon="-0.6327">
        <ele>75</ele>
        <time>2015-08-25T18:41:15Z</time>
      </trkpt>
      <trkpt lat="47.46591" lon="-0.63253">
        <ele>75</ele>
        <time>2015-08-25T18:41:20Z</time>
      </trkpt>
      <trkpt lat="47.46598" lon="-0.63238">
        <ele>74</ele>
        <time>2015-08-25T18:41:25Z</time>
      </trkpt>
      <trkpt lat="47.46608" lon="-0.63204">
        <ele>74</ele>
        <time>2015-08-25T18:41:34Z</time>
      </trkpt>
      <trkpt lat="47.4661" lon="-0.63193">
        <ele>74</ele>
        <time>2015-08-25T18:41:36Z</time>
      </trkpt>
      <trkpt lat="47.46616" lon="-0.6316">
        <ele>73</ele>
        <time>2015-08-25T18:41:46Z</time>
      </trkpt>
      <trkpt lat="47.46618" lon="-0.63154">
        <ele>73</ele>
        <time>2015-08-25T18:41:49Z</time>
      </trkpt>
      <trkpt lat="47.46624" lon="-0.63129">
        <ele>73</ele>
        <time>2015-08-25T18:41:55Z</time>
      </trkpt>
      <trkpt lat="47.46635" lon="-0.63099">
        <ele>73</ele>
        <time>2015-08-25T18:42:04Z</time>
      </trkpt>
      <trkpt lat="47.46638" lon="-0.63089">
        <ele>72</ele>
        <time>2015-08-25T18:42:07Z</time>
      </trkpt>
      <trkpt lat="47.46643" lon="-0.63071">
        <ele>72</ele>
        <time>2015-08-25T18:42:12Z</time>
      </trkpt>
      <trkpt lat="47.46653" lon="-0.63047">
        <ele>72</ele>
        <time>2015-08-25T18:42:19Z</time>
      </trkpt>
      <trkpt lat="47.46659" lon="-0.63025">
        <ele>72</ele>
        <time>2015-08-25T18:42:25Z</time>
      </trkpt>
      <trkpt lat="47.46661" lon="-0.63011">
        <ele>71</ele>
        <time>2015-08-25T18:42:31Z</time>
      </trkpt>
      <trkpt lat="47.46668" lon="-0.62988">
        <ele>71</ele>
        <time>2015-08-25T18:42:37Z</time>
      </trkpt>
      <trkpt lat="47.46676" lon="-0.62967">
        <ele>71</ele>
        <time>2015-08-25T18:42:46Z</time>
      </trkpt>
      <trkpt lat="47.4668" lon="-0.62958">
        <ele>71</ele>
        <time>2015-08-25T18:42:51Z</time>
      </trkpt>
    </trkseg>
  </trk>
</gpx>